createdAt,value
2019-06-15T00:02:17.178Z,95.33
2019-06-15T00:04:45.893Z,95.42
2019-06-15T00:07:14.777Z,95.08
2019-06-15T00:09:43.500Z,95.15
2019-06-15T00:12:13.246Z,95.21
2019-06-15T00:14:42.126Z,94.60
2019-06-15T00:17:10.841Z,94.66
2019-06-15T00:19:39.558Z,95.11
2019-06-15T00:22:08.386Z,95.23
2019-06-15T00:24:37.094Z,94.87
2019-06-15T00:27:05.819Z,94.74
2019-06-15T00:29:34.685Z,94.27
2019-06-15T00:32:03.403Z,93.96
2019-06-15T00:34:32.123Z,93.68
2019-06-15T00:37:01.194Z,92.53
2019-06-15T00:39:29.921Z,91.32
2019-06-15T00:41:58.741Z,90.45
2019-06-15T00:44:27.512Z,89.15
2019-06-15T00:46:56.228Z,88.64
2019-06-15T00:49:24.952Z,88.48
2019-06-15T00:51:54.014Z,87.54
2019-06-15T00:54:22.737Z,87.90
2019-06-15T00:56:51.508Z,88.03
2019-06-15T00:59:20.387Z,88.07
2019-06-15T01:01:49.119Z,88.27
2019-06-15T01:04:17.842Z,88.16
2019-06-15T01:06:46.731Z,88.75
2019-06-15T01:09:15.459Z,88.74
2019-06-15T01:11:44.210Z,88.93
2019-06-15T01:14:12.957Z,91.26
2019-06-15T01:16:41.681Z,92.94
2019-06-15T01:19:10.392Z,93.67
2019-06-15T01:21:39.151Z,94.31
2019-06-15T01:24:07.870Z,95.46
2019-06-15T01:26:36.591Z,95.86
2019-06-15T01:29:05.473Z,96.84
2019-06-15T01:31:34.173Z,97.46
2019-06-15T01:34:02.897Z,97.67
2019-06-15T01:36:31.653Z,97.74
2019-06-15T01:39:00.374Z,97.83
2019-06-15T01:41:29.098Z,98.42
2019-06-15T01:43:57.866Z,98.26
2019-06-15T01:46:26.584Z,98.45
2019-06-15T01:48:55.311Z,98.31
2019-06-15T01:51:24.172Z,98.41
2019-06-15T01:53:52.900Z,98.38
2019-06-15T01:56:21.627Z,98.68
2019-06-15T01:58:50.441Z,98.64
2019-06-15T02:01:19.214Z,98.68
2019-06-15T02:03:47.999Z,98.26
2019-06-15T02:06:16.753Z,98.58
2019-06-15T02:08:45.478Z,98.64
2019-06-15T02:11:14.204Z,98.46
2019-06-15T02:13:43.072Z,97.96
2019-06-15T02:16:11.803Z,98.10
2019-06-15T02:18:40.537Z,98.04
2019-06-15T02:21:09.437Z,98.26
2019-06-15T02:23:38.202Z,98.83
2019-06-15T02:26:06.895Z,99.56
2019-06-15T02:28:35.742Z,100.00
2019-06-15T02:31:05.095Z,100.00
2019-06-15T02:33:33.838Z,100.00
2019-06-15T02:36:02.726Z,100.00
2019-06-15T02:38:31.464Z,100.00
2019-06-15T02:41:00.196Z,100.00
2019-06-15T02:43:29.102Z,100.00
2019-06-15T02:45:57.930Z,100.00
2019-06-15T02:48:26.674Z,100.00
2019-06-15T02:50:55.530Z,99.37
2019-06-15T02:53:24.330Z,98.90
2019-06-15T02:55:53.075Z,98.48
2019-06-15T02:58:21.931Z,98.59
2019-06-15T03:00:56.479Z,98.42
2019-06-15T03:03:25.368Z,98.50
2019-06-15T03:05:54.497Z,98.55
2019-06-15T03:08:23.726Z,99.10
2019-06-15T03:10:52.796Z,98.35
2019-06-15T03:13:24.156Z,98.56
2019-06-15T03:15:52.883Z,98.70
2019-06-15T03:18:21.790Z,99.47
2019-06-15T03:20:50.529Z,99.73
2019-06-15T03:23:19.265Z,99.45
2019-06-15T03:25:48.153Z,99.42
2019-06-15T03:28:16.881Z,99.74
2019-06-15T03:30:45.609Z,99.96
2019-06-15T03:33:14.567Z,99.62
2019-06-15T03:35:43.305Z,99.78
2019-06-15T03:38:12.030Z,99.14
2019-06-15T03:40:42.413Z,99.45
2019-06-15T03:43:11.243Z,99.76
2019-06-15T03:45:39.973Z,99.07
2019-06-15T03:48:08.772Z,98.71
2019-06-15T03:50:37.496Z,98.62
2019-06-15T03:53:06.222Z,98.54
2019-06-15T03:55:35.039Z,97.99
2019-06-15T03:58:03.759Z,97.67
2019-06-15T04:00:44.533Z,97.12
2019-06-15T04:03:13.562Z,96.85
2019-06-15T04:05:43.589Z,96.68
2019-06-15T04:08:12.573Z,97.02
2019-06-15T04:10:41.343Z,97.46
2019-06-15T04:13:10.110Z,97.25
2019-06-15T04:15:38.995Z,96.64
2019-06-15T04:18:07.731Z,95.85
2019-06-15T04:20:36.457Z,95.47
2019-06-15T04:23:06.357Z,95.18
2019-06-15T04:25:35.093Z,95.31
2019-06-15T04:28:03.818Z,95.28
2019-06-15T04:30:32.591Z,95.27
2019-06-15T04:33:02.490Z,94.33
2019-06-15T04:35:31.222Z,93.72
2019-06-15T04:38:00.023Z,94.07
2019-06-15T04:40:28.752Z,93.04
2019-06-15T04:42:57.479Z,92.62
2019-06-15T04:45:26.249Z,91.83
2019-06-15T04:47:54.978Z,91.35
2019-06-15T04:50:23.715Z,91.77
2019-06-15T04:52:52.479Z,90.67
2019-06-15T04:55:21.217Z,90.41
2019-06-15T04:57:50.014Z,89.61
2019-06-15T05:00:18.930Z,89.81
2019-06-15T05:02:47.966Z,88.43
2019-06-15T05:05:16.843Z,85.91
2019-06-15T05:07:46.404Z,82.65
2019-06-15T05:10:15.229Z,80.81
2019-06-15T05:12:43.956Z,80.51
2019-06-15T05:15:13.024Z,81.24
2019-06-15T05:17:41.752Z,83.57
2019-06-15T05:20:10.980Z,81.56
2019-06-15T05:22:39.870Z,82.17
2019-06-15T05:25:08.792Z,81.60
2019-06-15T05:27:37.554Z,81.87
2019-06-15T05:30:09.424Z,82.09
2019-06-15T05:32:38.159Z,82.01
2019-06-15T05:35:10.347Z,81.38
2019-06-15T05:37:39.142Z,80.68
2019-06-15T05:40:08.165Z,82.54
2019-06-15T05:42:36.895Z,81.64
2019-06-15T05:45:09.158Z,81.73
2019-06-15T05:47:37.867Z,81.82
2019-06-15T05:50:07.389Z,81.78
2019-06-15T05:52:36.269Z,81.30
2019-06-15T05:55:09.319Z,81.19
2019-06-15T05:57:38.043Z,82.46
2019-06-15T06:00:08.886Z,80.48
2019-06-15T06:02:37.615Z,80.20
2019-06-15T06:05:07.037Z,80.78
2019-06-15T06:07:36.148Z,80.92
2019-06-15T06:10:10.634Z,79.26
2019-06-15T06:12:37.889Z,78.88
2019-06-15T06:15:10.217Z,78.43
2019-06-15T06:17:41.544Z,80.08
2019-06-15T06:20:10.557Z,79.76
2019-06-15T06:22:39.429Z,79.33
2019-06-15T06:25:09.745Z,80.04
2019-06-15T06:27:38.530Z,80.32
2019-06-15T06:30:11.935Z,80.04
2019-06-15T06:32:41.988Z,79.94
2019-06-15T06:35:11.105Z,80.02
2019-06-15T06:37:39.974Z,80.02
2019-06-15T06:40:13.499Z,79.89
2019-06-15T06:42:42.302Z,78.40
2019-06-15T06:45:12.033Z,78.40
2019-06-15T06:47:41.274Z,76.44
2019-06-15T06:50:11.024Z,76.82
2019-06-15T06:52:39.920Z,76.38
2019-06-15T06:55:09.565Z,76.37
2019-06-15T06:57:51.376Z,74.21
2019-06-15T07:00:12.553Z,74.42
2019-06-15T07:02:42.630Z,71.53
2019-06-15T07:05:12.342Z,70.91
2019-06-15T07:07:41.232Z,68.30
2019-06-15T07:10:13.866Z,68.14
2019-06-15T07:12:42.672Z,70.47
2019-06-15T07:15:11.942Z,68.95
2019-06-15T07:17:40.760Z,65.01
2019-06-15T07:20:11.156Z,65.97
2019-06-15T07:22:40.205Z,67.63
2019-06-15T07:25:09.801Z,66.20
2019-06-15T07:27:38.627Z,64.34
2019-06-15T07:30:10.260Z,61.96
2019-06-15T07:32:39.366Z,60.66
2019-06-15T07:35:09.667Z,57.07
2019-06-15T07:37:38.847Z,54.73
2019-06-15T07:40:08.771Z,53.77
2019-06-15T07:42:39.421Z,57.35
2019-06-15T07:45:08.575Z,53.13
2019-06-15T07:47:37.413Z,51.72
2019-06-15T07:50:07.850Z,48.92
2019-06-15T07:52:36.901Z,48.00
2019-06-15T07:55:09.104Z,54.43
2019-06-15T07:57:37.929Z,49.95
2019-06-15T08:00:09.113Z,48.87
2019-06-15T08:02:37.993Z,50.83
2019-06-15T08:05:08.570Z,53.68
2019-06-15T08:07:37.428Z,53.43
2019-06-15T08:10:11.945Z,54.04
2019-06-15T08:12:40.854Z,54.39
2019-06-15T08:15:11.582Z,54.77
2019-06-15T08:17:40.385Z,55.59
2019-06-15T08:20:13.053Z,56.34
2019-06-15T08:22:41.934Z,55.88
2019-06-15T08:25:11.424Z,52.84
2019-06-15T08:27:40.285Z,52.63
2019-06-15T08:30:10.604Z,55.33
2019-06-15T08:32:39.427Z,55.71
2019-06-15T08:35:08.538Z,48.84
2019-06-15T08:37:37.411Z,51.92
2019-06-15T08:40:08.070Z,48.28
2019-06-15T08:42:36.872Z,48.54
2019-06-15T08:45:09.076Z,47.55
2019-06-15T08:47:37.883Z,51.40
2019-06-15T08:50:06.996Z,48.23
2019-06-15T08:52:35.983Z,50.50
2019-06-15T08:55:06.706Z,48.01
2019-06-15T08:57:35.434Z,46.91
2019-06-15T09:00:07.240Z,46.68
2019-06-15T09:02:36.023Z,47.39
2019-06-15T09:05:08.904Z,45.98
2019-06-15T09:07:37.773Z,44.15
2019-06-15T09:10:08.570Z,45.36
2019-06-15T09:12:37.299Z,40.82
2019-06-15T09:15:08.423Z,43.18
2019-06-15T09:17:37.238Z,43.72
2019-06-15T09:20:10.557Z,39.80
2019-06-15T09:22:39.396Z,39.57
2019-06-15T09:25:08.613Z,38.57
2019-06-15T09:27:37.434Z,41.39
2019-06-15T09:30:08.906Z,43.22
2019-06-15T09:32:37.652Z,41.24
2019-06-15T09:35:09.343Z,34.44
2019-06-15T09:37:38.923Z,37.17
2019-06-15T09:40:08.551Z,37.90
2019-06-15T09:42:37.279Z,37.76
2019-06-15T09:45:07.662Z,35.98
2019-06-15T09:47:36.370Z,35.13
2019-06-15T09:50:06.199Z,37.49
2019-06-15T09:52:35.078Z,39.03
2019-06-15T09:55:04.899Z,37.36
2019-06-15T09:57:34.425Z,37.97
2019-06-15T10:00:04.831Z,38.11
2019-06-15T10:02:33.559Z,35.69
2019-06-15T10:05:02.284Z,37.64
2019-06-15T10:07:31.105Z,35.88
2019-06-15T10:09:59.825Z,37.29
2019-06-15T10:12:28.548Z,41.46
2019-06-15T10:14:58.926Z,32.67
2019-06-15T10:17:27.763Z,33.84
2019-06-15T10:19:56.492Z,36.15
2019-06-15T10:22:25.378Z,33.87
2019-06-15T10:24:54.104Z,34.55
2019-06-15T10:27:22.819Z,33.19
2019-06-15T10:29:51.683Z,33.82
2019-06-15T10:32:20.426Z,40.04
2019-06-15T10:34:49.147Z,39.71
2019-06-15T10:37:18.226Z,38.43
2019-06-15T10:39:47.018Z,32.77
2019-06-15T10:42:15.725Z,35.56
2019-06-15T10:44:44.619Z,37.18
2019-06-15T10:47:13.330Z,33.26
2019-06-15T10:49:42.053Z,37.35
2019-06-15T10:52:11.594Z,38.22
2019-06-15T10:54:40.323Z,34.06
2019-06-15T10:57:09.039Z,39.27
2019-06-15T10:59:37.931Z,37.61
2019-06-15T11:02:07.602Z,35.39
2019-06-15T11:04:36.606Z,35.81
2019-06-15T11:07:05.879Z,38.42
2019-06-15T11:09:34.599Z,36.26
2019-06-15T11:12:03.457Z,36.73
2019-06-15T11:14:32.504Z,36.73
2019-06-15T11:17:01.334Z,39.64
2019-06-15T11:19:30.132Z,39.66
2019-06-15T11:21:58.986Z,41.21
2019-06-15T11:24:27.710Z,43.84
2019-06-15T11:26:56.435Z,39.64
2019-06-15T11:29:25.286Z,38.70
2019-06-15T11:31:54.001Z,41.44
2019-06-15T11:34:22.735Z,39.25
2019-06-15T11:36:51.803Z,38.99
2019-06-15T11:39:20.507Z,40.33
2019-06-15T11:41:49.276Z,35.58
2019-06-15T11:44:18.185Z,37.05
2019-06-15T11:46:46.928Z,38.34
2019-06-15T11:49:15.659Z,38.67
2019-06-15T11:51:45.019Z,34.29
2019-06-15T11:54:13.742Z,35.58
2019-06-15T11:56:42.457Z,36.58
2019-06-15T11:59:11.350Z,42.20
2019-06-15T12:01:41.505Z,36.95
2019-06-15T12:04:10.332Z,37.72
2019-06-15T12:06:40.669Z,37.30
2019-06-15T12:09:09.702Z,35.42
2019-06-15T12:11:38.413Z,36.51
2019-06-15T12:14:07.230Z,38.27
2019-06-15T12:16:35.956Z,35.45
2019-06-15T12:19:04.681Z,35.45
2019-06-15T12:21:33.632Z,36.81
2019-06-15T12:24:02.370Z,40.00
2019-06-15T12:26:31.075Z,36.98
2019-06-15T12:29:00.211Z,36.78
2019-06-15T12:31:30.386Z,36.95
2019-06-15T12:33:59.121Z,36.57
2019-06-15T12:36:27.892Z,35.67
2019-06-15T12:38:56.610Z,35.41
2019-06-15T12:41:25.328Z,33.17
2019-06-15T12:43:54.191Z,35.92
2019-06-15T12:46:22.915Z,33.68
2019-06-15T12:48:51.634Z,32.28
2019-06-15T12:51:20.429Z,38.17
2019-06-15T12:53:49.160Z,35.22
2019-06-15T12:56:17.892Z,34.95
2019-06-15T12:58:46.761Z,37.84
2019-06-15T13:01:16.397Z,34.24
2019-06-15T13:03:45.174Z,35.88
2019-06-15T13:06:14.069Z,35.00
2019-06-15T13:08:42.793Z,35.55
2019-06-15T13:11:11.522Z,35.20
2019-06-15T13:13:41.838Z,37.35
2019-06-15T13:16:11.934Z,35.76
2019-06-15T13:18:40.654Z,35.14
2019-06-15T13:21:09.432Z,35.75
2019-06-15T13:23:38.749Z,36.45
2019-06-15T13:26:07.600Z,34.68
2019-06-15T13:28:36.830Z,33.20
2019-06-15T13:31:17.669Z,36.75
2019-06-15T13:33:36.004Z,36.20
2019-06-15T13:36:04.782Z,33.95
2019-06-15T13:38:33.510Z,33.09
2019-06-15T13:41:02.230Z,31.90
2019-06-15T13:43:31.019Z,34.37
2019-06-15T13:46:00.340Z,32.08
2019-06-15T13:48:29.060Z,31.25
2019-06-15T13:50:58.014Z,32.70
2019-06-15T13:53:27.858Z,34.74
2019-06-15T13:55:56.593Z,34.76
2019-06-15T13:58:25.512Z,34.40
2019-06-15T14:00:54.231Z,33.19
2019-06-15T14:03:23.029Z,34.63
2019-06-15T14:05:51.996Z,34.89
2019-06-15T14:08:20.724Z,32.23
2019-06-15T14:10:49.444Z,34.65
2019-06-15T14:13:18.432Z,35.29
2019-06-15T14:15:47.945Z,30.41
2019-06-15T14:18:16.663Z,30.56
2019-06-15T14:20:45.472Z,32.81
2019-06-15T14:23:14.198Z,33.83
2019-06-15T14:25:42.946Z,35.71
2019-06-15T14:28:11.824Z,32.00
2019-06-15T14:30:40.554Z,32.92
2019-06-15T14:33:09.272Z,30.40
2019-06-15T14:35:38.058Z,30.43
2019-06-15T14:38:06.775Z,34.17
2019-06-15T14:40:35.495Z,33.14
2019-06-15T14:43:04.387Z,33.31
2019-06-15T14:45:33.111Z,29.82
2019-06-15T14:48:01.838Z,32.41
2019-06-15T14:50:30.718Z,35.21
2019-06-15T14:52:59.455Z,34.02
2019-06-15T14:55:28.166Z,31.03
2019-06-15T14:57:59.811Z,30.63
2019-06-15T15:00:28.517Z,32.69
2019-06-15T15:02:57.257Z,32.30
2019-06-15T15:05:27.588Z,31.39
2019-06-15T15:07:57.876Z,32.79
2019-06-15T15:10:27.196Z,33.67
2019-06-15T15:12:56.712Z,36.37
2019-06-15T15:15:25.539Z,33.80
2019-06-15T15:17:54.271Z,37.17
2019-06-15T15:20:23.168Z,34.19
2019-06-15T15:22:51.923Z,34.08
2019-06-15T15:25:20.659Z,33.47
2019-06-15T15:27:49.743Z,33.02
2019-06-15T15:30:27.419Z,34.24
2019-06-15T15:32:57.140Z,38.48
2019-06-15T15:35:26.911Z,35.39
2019-06-15T15:37:56.960Z,34.68
2019-06-15T15:40:27.488Z,35.27
2019-06-15T15:42:56.393Z,35.69
2019-06-15T15:45:26.291Z,36.55
2019-06-15T15:47:55.632Z,40.67
2019-06-15T15:50:26.300Z,36.30
2019-06-15T15:52:56.774Z,36.47
2019-06-15T15:55:26.700Z,36.68
2019-06-15T15:57:56.296Z,38.02
2019-06-15T16:00:34.067Z,38.60
2019-06-15T16:03:06.938Z,39.69
2019-06-15T16:05:37.100Z,40.04
2019-06-15T16:08:06.628Z,39.51
2019-06-15T16:10:37.619Z,38.50
2019-06-15T16:13:06.693Z,39.80
2019-06-15T16:15:37.264Z,39.45
2019-06-15T16:18:06.935Z,40.14
2019-06-15T16:20:37.008Z,42.15
2019-06-15T16:23:07.895Z,41.69
2019-06-15T16:25:37.343Z,43.39
2019-06-15T16:28:07.122Z,43.84
2019-06-15T16:31:00.560Z,44.80
2019-06-15T16:33:07.954Z,45.48
2019-06-15T16:35:37.000Z,46.16
2019-06-15T16:38:07.143Z,47.13
2019-06-15T16:40:40.859Z,46.03
2019-06-15T16:43:10.035Z,48.50
2019-06-15T16:45:39.764Z,49.30
2019-06-15T16:48:08.510Z,48.64
2019-06-15T16:50:37.229Z,50.63
2019-06-15T16:53:06.943Z,53.27
2019-06-15T16:55:36.984Z,51.49
2019-06-15T16:58:07.491Z,51.59
2019-06-15T17:00:37.274Z,52.19
2019-06-15T17:03:19.932Z,50.00
2019-06-15T17:05:38.074Z,49.95
2019-06-15T17:08:07.270Z,50.78
2019-06-15T17:10:43.915Z,50.29
2019-06-15T17:13:16.072Z,51.05
2019-06-15T17:15:46.851Z,52.51
2019-06-15T17:18:14.943Z,53.41
2019-06-15T17:20:51.271Z,52.94
2019-06-15T17:23:20.250Z,53.80
2019-06-15T17:25:49.133Z,54.55
2019-06-15T17:28:18.055Z,55.14
2019-06-15T17:30:47.102Z,55.35
2019-06-15T17:33:16.512Z,55.75
2019-06-15T17:35:56.152Z,56.20
2019-06-15T17:38:16.907Z,57.64
2019-06-15T17:40:46.078Z,57.99
2019-06-15T17:43:16.162Z,59.40
2019-06-15T17:45:46.884Z,59.69
2019-06-15T17:48:17.406Z,59.91
2019-06-15T17:50:47.728Z,60.14
2019-06-15T17:53:17.059Z,60.53
2019-06-15T17:55:46.674Z,60.58
2019-06-15T17:58:16.948Z,61.09
2019-06-15T18:00:51.732Z,61.32
2019-06-15T18:03:20.601Z,61.65
2019-06-15T18:05:49.319Z,61.80
2019-06-15T18:08:18.041Z,62.18
2019-06-15T18:10:47.838Z,62.73
2019-06-15T18:13:17.296Z,63.50
2019-06-15T18:15:47.569Z,63.79
2019-06-15T18:18:17.238Z,64.00
2019-06-15T18:20:46.281Z,64.52
2019-06-15T18:23:17.383Z,65.43
2019-06-15T18:25:46.832Z,65.92
2019-06-15T18:28:17.452Z,65.27
2019-06-15T18:30:46.973Z,64.89
2019-06-15T18:33:16.629Z,66.07
2019-06-15T18:35:47.517Z,66.07
2019-06-15T18:38:15.906Z,65.43
2019-06-15T18:40:44.768Z,64.47
2019-06-15T18:43:13.508Z,63.98
2019-06-15T18:45:43.059Z,64.44
2019-06-15T18:48:11.940Z,65.09
2019-06-15T18:50:42.235Z,66.02
2019-06-15T18:53:11.185Z,64.86
2019-06-15T18:55:39.976Z,65.99
2019-06-15T18:58:08.707Z,66.06
2019-06-15T19:00:37.424Z,66.68
2019-06-15T19:03:07.051Z,67.16
2019-06-15T19:05:37.191Z,67.61
2019-06-15T19:08:06.954Z,67.61
2019-06-15T19:10:37.092Z,67.39
2019-06-15T19:13:07.506Z,68.25
2019-06-15T19:15:37.488Z,68.56
2019-06-15T19:18:07.272Z,68.40
2019-06-15T19:20:37.189Z,68.33
2019-06-15T19:23:07.015Z,68.62
2019-06-15T19:25:36.733Z,68.74
2019-06-15T19:28:05.823Z,69.60
2019-06-15T19:30:40.335Z,70.54
2019-06-15T19:33:09.269Z,72.28
2019-06-15T19:35:38.491Z,72.21
2019-06-15T19:38:10.591Z,71.89
2019-06-15T19:40:39.755Z,71.38
2019-06-15T19:43:08.481Z,70.69
2019-06-15T19:45:38.641Z,69.94
2019-06-15T19:48:07.488Z,69.85
2019-06-15T19:50:36.534Z,69.70
2019-06-15T19:53:07.025Z,67.33
2019-06-15T19:55:36.479Z,66.25
2019-06-15T19:58:07.207Z,66.12
2019-06-15T20:00:36.949Z,65.68
2019-06-15T20:03:06.978Z,66.33
2019-06-15T20:05:37.045Z,66.12
2019-06-15T20:08:07.038Z,66.67
2019-06-15T20:10:37.111Z,67.04
2019-06-15T20:13:07.135Z,67.48
2019-06-15T20:15:37.803Z,67.32
2019-06-15T20:18:07.127Z,68.16
2019-06-15T20:20:37.274Z,67.77
2019-06-15T20:23:07.179Z,65.99
2019-06-15T20:25:37.918Z,65.77
2019-06-15T20:28:07.303Z,65.41
2019-06-15T20:30:37.117Z,64.78
2019-06-15T20:33:08.110Z,64.09
2019-06-15T20:35:36.923Z,66.49
2019-06-15T20:38:05.647Z,69.85
2019-06-15T20:40:36.457Z,71.43
2019-06-15T20:43:07.368Z,73.10
2019-06-15T20:45:37.144Z,75.07
2019-06-15T20:48:07.350Z,76.71
2019-06-15T20:50:36.420Z,77.00
2019-06-15T20:53:06.058Z,78.29
2019-06-15T20:55:37.337Z,79.28
2019-06-15T20:58:06.899Z,80.34
2019-06-15T21:00:36.779Z,81.49
2019-06-15T21:03:07.321Z,82.19
2019-06-15T21:05:41.552Z,82.39
2019-06-15T21:08:07.598Z,82.96
2019-06-15T21:10:38.176Z,83.08
2019-06-15T21:13:06.897Z,83.54
2019-06-15T21:15:38.526Z,84.51
2019-06-15T21:18:07.487Z,83.77
2019-06-15T21:20:37.232Z,83.65
2019-06-15T21:23:06.619Z,83.35
2019-06-15T21:25:35.710Z,83.71
2019-06-15T21:28:06.667Z,84.96
2019-06-15T21:30:36.863Z,85.49
2019-06-15T21:33:07.030Z,86.86
2019-06-15T21:35:48.180Z,88.58
2019-06-15T21:38:06.791Z,89.42
2019-06-15T21:40:37.015Z,89.90
2019-06-15T21:43:07.106Z,88.18
2019-06-15T21:45:37.010Z,88.05
2019-06-15T21:48:07.000Z,88.24
2019-06-15T21:50:36.311Z,88.36
2019-06-15T21:53:06.872Z,88.44
2019-06-15T21:55:36.375Z,88.72
2019-06-15T21:58:07.507Z,88.21
2019-06-15T22:01:12.217Z,87.99
2019-06-15T22:03:42.306Z,87.36
2019-06-15T22:06:11.017Z,87.70
2019-06-15T22:08:41.363Z,88.51
2019-06-15T22:11:11.532Z,91.05
2019-06-15T22:13:41.755Z,91.78
2019-06-15T22:16:13.948Z,92.86
2019-06-15T22:18:42.681Z,93.26
2019-06-15T22:21:11.396Z,93.43
2019-06-15T22:23:40.183Z,93.54
2019-06-15T22:26:08.909Z,94.23
2019-06-15T22:28:38.655Z,94.77
2019-06-15T22:31:07.544Z,95.33
2019-06-15T22:33:36.767Z,95.57
2019-06-15T22:36:20.764Z,96.00
2019-06-15T22:38:36.941Z,96.65
2019-06-15T22:41:06.144Z,96.26
2019-06-15T22:43:36.423Z,95.38
2019-06-15T22:46:07.526Z,95.80
2019-06-15T22:48:36.266Z,97.16
2019-06-15T22:51:06.241Z,97.59
2019-06-15T22:53:36.444Z,98.01
2019-06-15T22:56:06.553Z,97.43
2019-06-15T22:58:35.703Z,97.55
2019-06-15T23:01:06.115Z,97.70
2019-06-15T23:03:35.098Z,97.65
2019-06-15T23:06:03.825Z,97.88
2019-06-15T23:08:36.165Z,98.71
2019-06-15T23:11:06.521Z,98.68
2019-06-15T23:13:36.675Z,98.97
2019-06-15T23:16:07.746Z,98.61
2019-06-15T23:18:36.466Z,98.08
2019-06-15T23:21:06.381Z,97.94
2019-06-15T23:23:36.134Z,96.17
2019-06-15T23:26:06.653Z,94.82
2019-06-15T23:28:35.910Z,93.84
2019-06-15T23:31:07.784Z,93.34
2019-06-15T23:33:36.539Z,92.65
2019-06-15T23:36:06.824Z,92.24
2019-06-15T23:38:37.781Z,90.85
2019-06-15T23:41:07.007Z,90.12
2019-06-15T23:43:36.276Z,89.79
2019-06-15T23:46:07.012Z,89.75
2019-06-15T23:48:36.421Z,89.51
2019-06-15T23:51:06.799Z,89.17
2019-06-15T23:53:36.800Z,89.68
2019-06-15T23:56:06.467Z,89.66
2019-06-15T23:58:37.011Z,89.90
